Time;durP1;ratioP1;P1;durP2;ratioP2;P2;SDS_P1;SDS_P2;PMS_P1;PMS_P2;Temp;Humidity;BMP_temperature;BMP_pressure;BME280_temperature;BME280_humidity;BME280_pressure;Samples;Min_cycle;Max_cycle;Signal;HPM_P1;HPM_P2
2024/02/08 00:01:27;;;;;;;48.88;27.73;;;5.40;95.70;;;;;;4995804;28;20455;-77
2024/02/08 00:03:53;;;;;;;48.92;26.38;;;5.40;95.60;;;;;;4995853;28;20373;-77
2024/02/08 00:06:19;;;;;;;39.00;26.27;;;5.40;95.60;;;;;;4994834;28;20030;-76
2024/02/08 00:08:44;;;;;;;49.15;28.40;;;5.50;95.60;;;;;;4992255;28;20314;-76
2024/02/08 00:11:10;;;;;;;39.90;25.92;;;5.50;95.60;;;;;;4998176;28;20022;-76
2024/02/08 00:13:36;;;;;;;44.70;27.42;;;5.50;95.50;;;;;;4993886;28;22306;-76
2024/02/08 00:16:02;;;;;;;45.97;26.77;;;5.50;95.50;;;;;;4997258;28;20141;-76
2024/02/08 00:18:28;;;;;;;42.88;27.25;;;5.50;95.40;;;;;;4994804;28;20060;-75
2024/02/08 00:20:54;;;;;;;49.25;28.92;;;5.50;95.50;;;;;;4992124;28;20026;-75
2024/02/08 00:23:20;;;;;;;41.85;25.38;;;5.50;95.40;;;;;;4994745;28;20040;-77
2024/02/08 00:25:50;;;;;;;38.78;24.27;;;5.50;95.30;;;;;;4997674;28;20193;-75
2024/02/08 00:28:16;;;;;;;35.53;24.13;;;5.50;95.30;;;;;;4990360;28;20040;-76
2024/02/08 00:30:42;;;;;;;41.63;26.52;;;5.50;95.20;;;;;;4993684;28;20475;-77
2024/02/08 00:33:08;;;;;;;45.00;26.38;;;5.50;95.20;;;;;;4992329;28;20025;-75
2024/02/08 00:35:35;;;;;;;43.78;27.55;;;5.50;95.20;;;;;;4992767;28;20042;-75
2024/02/08 00:38:01;;;;;;;46.28;28.52;;;5.40;94.80;;;;;;4989827;28;20030;-75
2024/02/08 00:40:27;;;;;;;42.53;28.08;;;5.30;94.70;;;;;;4996025;28;20037;-74
2024/02/08 00:42:53;;;;;;;48.10;28.65;;;5.20;94.80;;;;;;4994975;28;20041;-75
2024/02/08 00:45:22;;;;;;;50.28;28.33;;;5.10;95.10;;;;;;5000347;28;20522;-76
2024/02/08 00:47:54;;;;;;;43.25;27.52;;;5.10;95.20;;;;;;5008337;28;20355;-76
2024/02/08 00:50:21;;;;;;;45.60;27.55;;;5.20;95.30;;;;;;4998570;28;20418;-75
2024/02/08 00:52:47;;;;;;;43.35;27.67;;;5.30;95.40;;;;;;4994335;28;20049;-77
2024/02/08 00:55:16;;;;;;;45.15;27.13;;;5.30;95.30;;;;;;4993369;28;20057;-75
2024/02/08 00:57:42;;;;;;;41.00;25.58;;;5.30;95.40;;;;;;4992983;28;20033;-77
2024/02/08 01:00:08;;;;;;;43.13;26.40;;;5.30;95.40;;;;;;4999640;28;20030;-75
2024/02/08 01:02:34;;;;;;;53.67;29.45;;;5.30;95.50;;;;;;4998371;28;20065;-76
2024/02/08 01:05:01;;;;;;;53.90;29.75;;;5.40;95.50;;;;;;5000288;28;20057;-77
2024/02/08 01:07:27;;;;;;;46.75;29.80;;;5.30;95.40;;;;;;4998562;28;20052;-74
2024/02/08 01:09:53;;;;;;;55.15;30.83;;;5.30;95.40;;;;;;4997185;28;20065;-74
2024/02/08 01:12:23;;;;;;;53.25;29.63;;;5.20;95.20;;;;;;4993028;28;20381;-77
2024/02/08 01:14:49;;;;;;;51.00;29.83;;;5.10;95.40;;;;;;4996356;28;20481;-75
2024/02/08 01:17:15;;;;;;;49.22;27.90;;;5.10;95.30;;;;;;4998790;28;20034;-74
2024/02/08 01:19:41;;;;;;;50.40;27.33;;;5.10;95.30;;;;;;4995188;28;20034;-75
2024/02/08 01:22:07;;;;;;;46.00;28.33;;;5.10;95.50;;;;;;5000401;28;20050;-74
2024/02/08 01:24:34;;;;;;;42.88;27.88;;;5.10;95.60;;;;;;5004257;28;20096;-77
2024/02/08 01:27:00;;;;;;;50.85;28.98;;;5.20;95.60;;;;;;4999174;28;20026;-75
2024/02/08 01:29:26;;;;;;;44.72;27.85;;;5.20;95.60;;;;;;4998040;28;20401;-75
2024/02/08 01:31:53;;;;;;;48.42;29.77;;;5.20;95.70;;;;;;5004366;28;20375;-73
2024/02/08 01:34:19;;;;;;;50.28;29.77;;;5.20;95.70;;;;;;5000137;28;20132;-75
2024/02/08 01:36:46;;;;;;;55.95;31.50;;;5.30;95.70;;;;;;4999481;28;20042;-73
2024/02/08 01:39:13;;;;;;;54.58;30.92;;;5.10;95.30;;;;;;4999811;28;20026;-74
2024/02/08 01:41:42;;;;;;;52.13;31.15;;;5.00;95.30;;;;;;4994867;28;20467;-77
2024/02/08 01:44:08;;;;;;;48.90;28.63;;;5.00;95.50;;;;;;4999153;28;20026;-77
2024/02/08 01:46:38;;;;;;;49.97;29.10;;;5.00;95.60;;;;;;4998912;28;20029;-75
2024/02/08 01:49:25;;;;;;;51.38;28.55;;;5.00;95.70;;;;;;5000802;28;20121;-76
2024/02/08 01:51:59;;;;;;;53.53;29.42;;;4.90;95.60;;;;;;5000949;28;20029;-76
2024/02/08 01:54:26;;;;;;;51.63;29.40;;;4.80;95.70;;;;;;4993505;28;20037;-74
2024/02/08 01:56:52;;;;;;;54.30;28.98;;;4.90;95.90;;;;;;4997391;28;20041;-74
2024/02/08 01:59:19;;;;;;;45.10;26.75;;;5.00;96.00;;;;;;4998769;28;20026;-76
2024/02/08 02:01:50;;;;;;;48.53;28.08;;;5.00;96.00;;;;;;4995871;28;20051;-74
2024/02/08 02:04:19;;;;;;;51.03;27.33;;;5.00;96.00;;;;;;4996078;28;20383;-77
2024/02/08 02:06:46;;;;;;;50.17;27.67;;;5.00;96.00;;;;;;4996804;28;20541;-74
2024/02/08 02:09:23;;;;;;;53.08;29.00;;;5.00;96.00;;;;;;4996598;28;20375;-76
2024/02/08 02:12:04;;;;;;;53.25;28.73;;;5.00;96.00;;;;;;4995374;28;20018;-74
2024/02/08 02:14:31;;;;;;;52.50;27.38;;;4.90;96.00;;;;;;4993890;28;20042;-74
2024/02/08 02:17:18;;;;;;;52.35;27.70;;;4.90;96.10;;;;;;4994364;28;20080;-78
2024/02/08 02:19:46;;;;;;;48.10;27.77;;;5.00;96.10;;;;;;4997596;28;20570;-76
2024/02/08 02:22:13;;;;;;;54.47;29.35;;;5.00;96.20;;;;;;5001109;28;20442;-75
2024/02/08 02:24:40;;;;;;;56.22;28.60;;;5.10;96.20;;;;;;4995735;28;20042;-76
2024/02/08 02:27:07;;;;;;;50.40;29.23;;;5.10;96.20;;;;;;4999209;28;20399;-76
2024/02/08 02:29:33;;;;;;;49.35;27.38;;;5.10;96.30;;;;;;4997777;28;20030;-75
2024/02/08 02:32:00;;;;;;;52.33;27.00;;;5.20;96.30;;;;;;5000963;28;20029;-76
2024/02/08 02:34:30;;;;;;;52.13;28.42;;;5.30;96.30;;;;;;4992860;28;20038;-74
2024/02/08 02:36:58;;;;;;;56.53;30.45;;;5.20;96.10;;;;;;4999331;28;20580;-77
2024/02/08 02:39:30;;;;;;;56.22;30.08;;;5.20;96.10;;;;;;4998025;28;20099;-75
2024/02/08 02:42:00;;;;;;;58.03;31.70;;;5.20;96.20;;;;;;5000363;28;20673;-76
2024/02/08 02:44:29;;;;;;;56.03;30.45;;;5.20;96.20;;;;;;4996602;28;20695;-74
2024/02/08 02:46:59;;;;;;;59.22;32.00;;;5.20;96.10;;;;;;4998746;28;20117;-77
2024/02/08 02:49:26;;;;;;;55.58;30.88;;;5.20;96.10;;;;;;4992353;28;20034;-75
2024/02/08 02:51:52;;;;;;;50.92;28.73;;;5.20;96.10;;;;;;4998316;28;20018;-74
2024/02/08 02:54:21;;;;;;;55.85;30.67;;;5.20;96.10;;;;;;4994828;28;20026;-76
2024/02/08 02:56:48;;;;;;;51.72;29.42;;;5.20;96.20;;;;;;4998945;28;20032;-76
2024/02/08 02:59:17;;;;;;;54.78;29.67;;;5.20;96.20;;;;;;5004738;28;20094;-74
2024/02/08 03:01:47;;;;;;;49.53;27.67;;;5.20;96.30;;;;;;5006627;28;20041;-74
2024/02/08 03:04:14;;;;;;;46.85;27.25;;;5.20;96.20;;;;;;5003508;28;20034;-75
2024/02/08 03:06:42;;;;;;;46.22;25.75;;;5.20;96.20;;;;;;4999882;28;20029;-74
2024/02/08 03:09:14;;;;;;;47.47;27.33;;;5.20;96.20;;;;;;4995828;28;20057;-75
2024/02/08 03:11:47;;;;;;;49.03;27.02;;;5.30;96.30;;;;;;5002547;28;20088;-75
2024/02/08 03:14:15;;;;;;;50.80;27.02;;;5.30;96.30;;;;;;5000572;28;20022;-75
2024/02/08 03:16:45;;;;;;;49.88;27.42;;;5.30;96.30;;;;;;4995599;28;20808;-75
2024/02/08 03:19:10;;;;;;;51.85;28.48;;;5.30;96.40;;;;;;4996849;28;20050;-75
2024/02/08 03:21:36;;;;;;;48.92;28.00;;;5.30;96.30;;;;;;4998209;28;20026;-77
2024/02/08 03:24:07;;;;;;;47.47;27.85;;;5.30;96.30;;;;;;4997178;28;20502;-76
2024/02/08 03:26:46;;;;;;;51.67;28.02;;;5.30;96.30;;;;;;4997778;28;20057;-75
2024/02/08 03:29:13;;;;;;;51.85;26.73;;;5.30;96.40;;;;;;4995821;28;20450;-77
2024/02/08 03:31:46;;;;;;;47.05;26.50;;;5.30;96.40;;;;;;4997047;28;20022;-76
2024/02/08 03:34:19;;;;;;;51.17;27.10;;;5.30;96.40;;;;;;4999253;28;20037;-77
2024/02/08 03:36:45;;;;;;;46.35;26.80;;;5.30;96.30;;;;;;4999283;28;20483;-74
2024/02/08 03:39:24;;;;;;;45.55;25.48;;;5.30;96.40;;;;;;4997896;28;20034;-75
2024/02/08 03:42:01;;;;;;;45.83;26.73;;;5.30;96.30;;;;;;5000876;28;20128;-74
2024/02/08 03:44:30;;;;;;;44.30;25.00;;;5.30;96.40;;;;;;4993460;28;20050;-74
2024/02/08 03:47:04;;;;;;;44.60;25.85;;;5.30;96.40;;;;;;4996434;28;20099;-75
2024/02/08 03:49:31;;;;;;;41.72;23.42;;;5.30;96.40;;;;;;4986071;28;20466;-75
2024/02/08 03:51:57;;;;;;;40.65;24.33;;;5.30;96.40;;;;;;5000080;28;20351;-75
2024/02/08 03:54:24;;;;;;;47.83;26.90;;;5.30;96.40;;;;;;4996434;28;20042;-74
2024/02/08 03:56:51;;;;;;;45.03;25.50;;;5.30;96.40;;;;;;4997669;28;20444;-76
2024/02/08 03:59:26;;;;;;;45.30;27.75;;;5.30;96.50;;;;;;4990427;28;20107;-76
2024/02/08 04:02:01;;;;;;;45.83;26.70;;;5.40;96.40;;;;;;4994030;28;20018;-75
2024/02/08 04:04:53;;;;;;;50.72;27.50;;;5.40;96.40;;;;;;4990217;28;20600;-75
2024/02/08 04:07:34;;;;;;;46.90;25.40;;;5.40;96.40;;;;;;4994453;28;20026;-76
2024/02/08 04:10:11;;;;;;;48.60;27.02;;;5.40;96.40;;;;;;4994811;28;20041;-75
2024/02/08 04:54:12;;;;;;;44.22;23.85;;;5.20;96.50;;;;;;5005367;28;20121;-75
2024/02/08 04:56:37;;;;;;;42.42;24.60;;;5.30;96.50;;;;;;5000797;28;20121;-76
2024/02/08 04:59:06;;;;;;;40.67;23.73;;;5.20;96.50;;;;;;5002109;28;20124;-73
2024/02/08 05:01:37;;;;;;;45.17;25.90;;;5.30;96.60;;;;;;4995935;28;20026;-75
2024/02/08 05:04:03;;;;;;;41.90;24.52;;;5.30;96.70;;;;;;5007119;28;20128;-75
2024/02/08 05:06:28;;;;;;;44.53;24.15;;;5.30;96.60;;;;;;4995598;28;20010;-75
2024/02/08 05:09:00;;;;;;;51.05;27.45;;;5.30;96.60;;;;;;5000629;28;20030;-74
2024/02/08 05:11:30;;;;;;;49.88;28.27;;;5.30;96.60;;;;;;4998190;28;20116;-74
2024/02/08 05:14:02;;;;;;;49.63;26.85;;;5.30;96.50;;;;;;5001229;28;20054;-74
2024/02/08 05:16:31;;;;;;;53.95;27.88;;;5.40;96.60;;;;;;4996063;28;20026;-75
2024/02/08 05:18:57;;;;;;;49.33;27.63;;;5.30;96.60;;;;;;4997890;28;20041;-77
2024/02/08 05:21:22;;;;;;;50.00;27.90;;;5.30;96.50;;;;;;5002389;28;20026;-75
2024/02/08 05:23:51;;;;;;;49.40;28.38;;;5.30;96.60;;;;;;5000524;28;20017;-74
2024/02/08 05:26:25;;;;;;;54.10;29.55;;;5.40;96.70;;;;;;4998803;28;20049;-75
2024/02/08 05:28:57;;;;;;;53.35;29.80;;;5.40;96.60;;;;;;4999266;28;20363;-76
2024/02/08 05:31:25;;;;;;;54.00;28.70;;;5.30;96.70;;;;;;4994548;28;20758;-76
2024/02/08 05:33:52;;;;;;;56.42;28.40;;;5.40;96.70;;;;;;4997480;28;20026;-74
2024/02/08 05:36:17;;;;;;;51.45;28.83;;;5.30;96.60;;;;;;4996544;28;20550;-74
2024/02/08 05:38:45;;;;;;;50.53;27.27;;;5.30;96.60;;;;;;5001165;28;20045;-76
2024/02/08 05:41:15;;;;;;;49.42;26.92;;;5.30;96.70;;;;;;4998319;28;20057;-75
2024/02/08 05:43:44;;;;;;;47.47;26.95;;;5.30;96.70;;;;;;4998672;28;20095;-74
2024/02/08 05:46:24;;;;;;;48.72;25.85;;;5.20;96.70;;;;;;4993101;28;20052;-76
2024/02/08 05:48:53;;;;;;;51.80;27.25;;;5.30;96.80;;;;;;4987291;28;20084;-77
2024/02/08 05:51:26;;;;;;;49.78;26.77;;;5.30;96.80;;;;;;4999313;28;20370;-76
2024/02/08 05:53:53;;;;;;;49.35;25.77;;;5.30;96.80;;;;;;4995709;28;20412;-74
2024/02/08 05:56:21;;;;;;;45.35;25.30;;;5.30;96.70;;;;;;4999037;28;20136;-76
2024/02/08 05:58:51;;;;;;;46.78;25.63;;;5.30;96.80;;;;;;5000760;28;20030;-76
2024/02/08 06:01:21;;;;;;;46.72;24.48;;;5.40;96.80;;;;;;4997533;28;20030;-76
2024/02/08 06:03:50;;;;;;;44.78;23.95;;;5.30;96.80;;;;;;4995683;28;20021;-74
2024/02/08 06:06:34;;;;;;;45.05;23.85;;;5.40;96.70;;;;;;4995963;28;20117;-78
2024/02/08 06:09:09;;;;;;;46.50;25.70;;;5.40;96.70;;;;;;4999233;28;20999;-75
2024/02/08 06:11:39;;;;;;;47.70;25.45;;;5.30;96.70;;;;;;4999835;28;20097;-75
2024/02/08 06:14:22;;;;;;;48.65;24.98;;;5.30;96.60;;;;;;5005180;28;20056;-74
2024/02/08 06:16:53;;;;;;;46.63;24.17;;;5.40;96.60;;;;;;4998111;28;20026;-75
2024/02/08 06:19:21;;;;;;;46.50;25.85;;;5.30;96.50;;;;;;4996542;28;20038;-76
2024/02/08 06:21:54;;;;;;;47.10;24.42;;;5.30;96.50;;;;;;5001862;28;20026;-75
2024/02/08 06:26:58;;;;;;;50.40;25.40;;;5.30;96.60;;;;;;5002738;28;20164;-75
2024/02/08 06:29:38;;;;;;;46.95;25.35;;;5.30;96.70;;;;;;4997729;28;20029;-74
2024/02/08 06:35:09;;;;;;;46.30;24.30;;;5.30;96.60;;;;;;5002165;28;20587;-76
2024/02/08 06:37:44;;;;;;;48.47;24.77;;;5.30;96.60;;;;;;4997399;28;20650;-76
2024/02/08 06:40:21;;;;;;;43.95;23.75;;;5.30;96.60;;;;;;4997443;28;22056;-75
2024/02/08 06:45:38;;;;;;;45.88;22.65;;;5.30;96.70;;;;;;4998331;28;20725;-74
2024/02/08 07:37:13;;;;;;;45.00;23.75;;;5.30;96.70;;;;;;4996679;28;20081;-75
2024/02/08 07:37:17;;;;;;;46.70;23.70;;;5.20;96.80;;;;;;4996565;28;20033;-75
2024/02/08 07:37:42;;;;;;;53.92;24.92;;;5.30;97.10;;;;;;4992888;28;20466;-77
2024/02/08 07:40:25;;;;;;;48.50;23.90;;;5.30;97.10;;;;;;4999354;28;20049;-75
2024/02/08 07:45:54;;;;;;;44.42;23.83;;;5.30;97.00;;;;;;4992563;28;20049;-74
2024/02/08 07:48:42;;;;;;;49.58;25.38;;;5.30;97.00;;;;;;4996735;28;20030;-77
2024/02/08 07:51:10;;;;;;;51.38;24.60;;;5.40;97.00;;;;;;4993217;28;20444;-74
2024/02/08 07:53:45;;;;;;;47.53;23.80;;;5.40;97.00;;;;;;4990176;28;20581;-78
2024/02/08 07:58:50;;;;;;;47.80;23.10;;;5.30;97.10;;;;;;4992137;28;20042;-75
2024/02/08 08:01:20;;;;;;;46.80;23.00;;;5.40;97.20;;;;;;4998566;28;20446;-75
2024/02/08 08:03:49;;;;;;;44.10;23.83;;;5.50;97.20;;;;;;4994374;28;20125;-75
2024/02/08 08:06:15;;;;;;;43.13;21.67;;;5.50;97.10;;;;;;4996739;28;20041;-74
2024/02/08 08:08:54;;;;;;;43.35;24.30;;;5.50;97.10;;;;;;4995797;28;20073;-75
2024/02/08 08:11:25;;;;;;;41.17;22.15;;;5.50;97.10;;;;;;4994133;28;20413;-77
2024/02/08 08:18:57;;;;;;;41.53;22.40;;;5.60;97.00;;;;;;4995113;28;20046;-71
2024/02/08 08:21:25;;;;;;;44.70;22.85;;;5.60;97.10;;;;;;4995927;28;20463;-71
2024/02/08 08:23:59;;;;;;;44.17;22.95;;;5.60;97.20;;;;;;4997006;28;20121;-73
2024/02/08 08:26:37;;;;;;;44.45;22.40;;;5.60;97.10;;;;;;4991646;28;20026;-72
2024/02/08 08:29:12;;;;;;;40.28;21.05;;;5.60;97.00;;;;;;4999933;28;20030;-72
2024/02/08 08:33:06;;;;;;;41.17;21.63;;;5.60;97.00;;;;;;4992484;28;20444;-70
2024/02/08 08:36:58;;;;;;;37.03;20.65;;;5.60;97.10;;;;;;5001381;28;20363;-72
2024/02/08 08:42:16;;;;;;;;;;;5.70;97.20;;;;;;4997778;28;20155;-71
2024/02/08 08:44:48;;;;;;;35.95;19.45;;;5.70;97.20;;;;;;4992372;28;19914;-72
2024/02/08 08:47:15;;;;;;;37.90;19.58;;;5.70;97.20;;;;;;4995656;28;20458;-72
2024/02/08 08:49:42;;;;;;;35.65;20.80;;;5.70;97.20;;;;;;4997062;28;20107;-72
2024/02/08 08:52:09;;;;;;;35.40;19.02;;;5.70;97.30;;;;;;4994381;28;20084;-71
2024/02/08 08:54:36;;;;;;;33.80;19.00;;;5.70;97.20;;;;;;4979473;28;20057;-71
2024/02/08 08:57:12;;;;;;;36.88;19.98;;;5.70;97.30;;;;;;4993642;28;20064;-71
2024/02/08 08:59:42;;;;;;;31.67;18.33;;;5.70;97.30;;;;;;4993167;28;20045;-72
2024/02/08 09:02:09;;;;;;;30.30;17.85;;;5.70;97.20;;;;;;4995622;28;20068;-71
2024/02/08 09:04:35;;;;;;;32.75;18.20;;;5.80;97.20;;;;;;4995791;28;20048;-71
2024/02/08 09:07:11;;;;;;;28.23;16.10;;;5.70;97.30;;;;;;4998356;28;20025;-73
2024/02/08 09:10:00;;;;;;;30.35;17.60;;;5.80;97.40;;;;;;4993906;28;20029;-72
2024/02/08 09:12:30;;;;;;;29.20;16.13;;;5.80;97.40;;;;;;4983234;28;20032;-72
2024/02/08 09:14:59;;;;;;;29.20;16.13;;;5.90;97.30;;;;;;5001006;28;20470;-73
2024/02/08 09:17:26;;;;;;;29.67;17.42;;;5.90;97.20;;;;;;5003351;28;20038;-72
2024/02/08 09:19:52;;;;;;;29.55;16.80;;;5.90;97.20;;;;;;4995087;28;20207;-72
2024/02/08 09:22:18;;;;;;;28.13;16.00;;;5.90;97.20;;;;;;5002270;28;20041;-73
2024/02/08 09:24:44;;;;;;;25.95;15.98;;;6.00;97.20;;;;;;4996318;28;20425;-72
2024/02/08 09:27:18;;;;;;;26.08;15.65;;;6.10;97.20;;;;;;4998356;28;20030;-72
2024/02/08 09:29:56;;;;;;;26.73;16.27;;;6.10;97.10;;;;;;4996601;28;20032;-72
2024/02/08 09:35:20;;;;;;;27.20;15.77;;;6.10;97.20;;;;;;5003425;28;20422;-72
2024/02/08 09:37:46;;;;;;;28.48;15.43;;;6.10;97.20;;;;;;5000669;28;20049;-71
2024/02/08 09:40:20;;;;;;;26.30;16.17;;;6.10;97.20;;;;;;4999567;28;20072;-71
2024/02/08 09:42:55;;;;;;;25.40;15.48;;;6.10;97.20;;;;;;4998836;28;20148;-73
2024/02/08 09:48:06;;;;;;;28.02;15.55;;;6.20;97.20;;;;;;4998681;28;20030;-73
2024/02/08 09:50:37;;;;;;;25.13;15.43;;;6.20;97.10;;;;;;4989195;28;20033;-72
2024/02/08 09:53:51;;;;;;;28.60;15.95;;;6.20;97.20;;;;;;4984572;28;20449;-73
2024/02/08 09:55:58;;;;;;;25.52;14.60;;;6.20;97.20;;;;;;4993274;28;20030;-71
2024/02/08 09:58:33;;;;;;;26.95;16.02;;;6.10;97.20;;;;;;5003910;28;20026;-73
2024/02/08 10:01:21;;;;;;;24.98;14.77;;;6.20;97.40;;;;;;5002569;28;20033;-72
2024/02/08 10:03:49;;;;;;;27.30;15.00;;;6.20;97.50;;;;;;4997204;28;20034;-73
2024/02/08 10:06:24;;;;;;;26.88;14.73;;;6.30;97.40;;;;;;4997171;28;20022;-73
2024/02/08 10:09:08;;;;;;;22.48;13.38;;;6.40;97.40;;;;;;4993909;28;20575;-71
2024/02/08 10:11:43;;;;;;;24.45;14.38;;;6.40;97.30;;;;;;4996845;28;20026;-71
2024/02/08 10:14:25;;;;;;;27.13;14.25;;;6.40;97.20;;;;;;4997446;28;20030;-71
2024/02/08 10:16:59;;;;;;;24.05;14.27;;;6.40;97.20;;;;;;4999708;28;20061;-73
2024/02/08 10:19:30;;;;;;;24.77;14.43;;;6.40;97.30;;;;;;5000998;28;20033;-72
2024/02/08 10:22:02;;;;;;;25.27;14.30;;;6.50;97.50;;;;;;4998997;28;20146;-71
2024/02/08 10:27:21;;;;;;;26.15;14.60;;;6.60;97.30;;;;;;5000668;28;20037;-71
2024/02/08 10:29:58;;;;;;;23.38;13.70;;;6.50;97.20;;;;;;4982145;28;20143;-72
2024/02/08 10:32:27;;;;;;;21.52;12.80;;;6.50;97.30;;;;;;4999096;28;20474;-71
2024/02/08 10:35:13;;;;;;;24.27;13.68;;;6.40;97.50;;;;;;5000673;28;20057;-72
2024/02/08 10:38:07;;;;;;;25.60;14.55;;;6.50;97.50;;;;;;4996198;28;20081;-72
2024/02/08 10:40:34;;;;;;;25.33;14.38;;;6.50;97.50;;;;;;4990411;28;20140;-73
2024/02/08 10:43:16;;;;;;;22.73;13.55;;;6.50;97.60;;;;;;4997770;28;20060;-70
2024/02/08 10:45:50;;;;;;;23.30;14.30;;;6.50;97.60;;;;;;4993155;28;20034;-72
2024/02/08 10:48:16;;;;;;;25.25;14.40;;;6.50;97.60;;;;;;4995761;28;20032;-71
2024/02/08 10:50:44;;;;;;;22.90;15.05;;;6.50;97.60;;;;;;4996389;28;20405;-72
2024/02/08 10:53:18;;;;;;;23.30;13.80;;;6.50;97.70;;;;;;4997541;28;20438;-73
2024/02/08 10:55:56;;;;;;;24.38;14.70;;;6.50;97.70;;;;;;4995388;28;20382;-72
2024/02/08 10:58:27;;;;;;;22.23;13.75;;;6.60;97.80;;;;;;4994303;28;20079;-72
2024/02/08 11:01:13;;;;;;;25.33;14.75;;;6.60;97.80;;;;;;4997726;28;20405;-71
2024/02/08 11:03:52;;;;;;;24.00;14.32;;;6.60;97.80;;;;;;4993302;28;20030;-72
2024/02/08 11:06:34;;;;;;;26.15;14.25;;;6.60;97.80;;;;;;4997740;28;20462;-71
2024/02/08 11:09:14;;;;;;;24.30;14.20;;;6.60;97.80;;;;;;4994570;28;20622;-70
2024/02/08 11:12:03;;;;;;;22.40;14.52;;;6.70;97.90;;;;;;4996844;28;20026;-70
2024/02/08 11:14:40;;;;;;;21.15;13.48;;;6.70;97.80;;;;;;4995002;28;20037;-71
2024/02/08 11:17:21;;;;;;;22.13;13.25;;;6.70;97.90;;;;;;4998221;28;20050;-70
2024/02/08 11:19:56;;;;;;;28.90;14.73;;;6.70;98.00;;;;;;4996725;28;20497;-71
2024/02/08 11:22:39;;;;;;;23.52;14.57;;;6.80;98.10;;;;;;4995374;28;20026;-70
2024/02/08 11:25:33;;;;;;;21.88;14.10;;;6.80;98.10;;;;;;4993182;28;20066;-71
2024/02/08 11:27:55;;;;;;;23.02;13.48;;;6.90;98.10;;;;;;4999405;28;20299;-71
2024/02/08 11:30:34;;;;;;;22.63;13.40;;;6.80;98.10;;;;;;4996112;28;20119;-70
2024/02/08 11:33:02;;;;;;;21.08;13.52;;;6.90;98.20;;;;;;4991682;28;20017;-72
2024/02/08 11:35:31;;;;;;;21.92;14.55;;;7.00;98.20;;;;;;4991556;28;20050;-72
2024/02/08 11:38:26;;;;;;;22.88;15.35;;;7.10;98.30;;;;;;4992422;28;20121;-70
2024/02/08 11:40:55;;;;;;;19.98;13.15;;;7.10;98.30;;;;;;4993074;28;20054;-71
2024/02/08 11:43:25;;;;;;;20.80;14.25;;;7.20;98.30;;;;;;4986949;28;20621;-71
2024/02/08 11:45:52;;;;;;;27.90;17.23;;;7.30;98.30;;;;;;4994168;28;20040;-71
2024/02/08 11:48:28;;;;;;;23.63;16.45;;;7.40;98.40;;;;;;4992907;28;20033;-72
2024/02/08 11:51:08;;;;;;;19.98;14.45;;;7.50;98.30;;;;;;4994005;28;20037;-73
2024/02/08 11:53:34;;;;;;;21.90;15.63;;;7.60;98.30;;;;;;4991932;28;20666;-72
2024/02/08 11:56:09;;;;;;;21.33;15.70;;;7.70;98.20;;;;;;4995066;28;20106;-72
2024/02/08 11:58:36;;;;;;;26.52;18.55;;;7.80;98.10;;;;;;4988337;28;20076;-71
2024/02/08 12:01:03;;;;;;;24.17;16.13;;;7.80;98.10;;;;;;4990828;28;20058;-72
2024/02/08 12:03:30;;;;;;;26.42;17.25;;;7.90;98.10;;;;;;4992924;28;20144;-73
2024/02/08 12:05:57;;;;;;;25.05;17.02;;;7.90;98.00;;;;;;4989731;28;20034;-71
2024/02/08 12:08:23;;;;;;;24.17;16.40;;;8.00;98.00;;;;;;4990524;28;20033;-72
2024/02/08 12:10:49;;;;;;;34.25;24.17;;;8.00;98.00;;;;;;4990713;28;20034;-71
2024/02/08 12:13:25;;;;;;;29.05;18.88;;;8.10;97.90;;;;;;4998732;28;20018;-70
2024/02/08 12:16:01;;;;;;;30.02;20.60;;;8.10;98.00;;;;;;5012223;28;20087;-71
2024/02/08 12:18:27;;;;;;;26.85;17.10;;;8.10;98.10;;;;;;4990997;28;20022;-73
2024/02/08 12:20:57;;;;;;;25.25;16.40;;;8.20;98.20;;;;;;4991343;28;20041;-71
2024/02/08 12:23:23;;;;;;;25.95;17.63;;;8.20;98.20;;;;;;4993927;28;20117;-71
2024/02/08 12:25:55;;;;;;;29.40;18.67;;;8.30;98.20;;;;;;4989324;28;20034;-72
2024/02/08 12:28:25;;;;;;;23.48;17.23;;;8.40;98.20;;;;;;4989782;28;20688;-72
2024/02/08 12:30:59;;;;;;;23.50;17.58;;;8.50;98.30;;;;;;4993580;28;20038;-72
2024/02/08 12:33:29;;;;;;;39.30;25.58;;;8.60;98.40;;;;;;5007601;28;20152;-70
2024/02/08 12:35:58;;;;;;;47.25;30.92;;;8.60;98.40;;;;;;4987907;28;20047;-70
2024/02/08 12:38:27;;;;;;;42.10;23.13;;;8.70;98.50;;;;;;4994182;28;20076;-71
2024/02/08 12:40:54;;;;;;;29.33;18.55;;;8.90;98.60;;;;;;4990776;28;20104;-70
2024/02/08 12:43:20;;;;;;;25.88;17.42;;;9.00;98.80;;;;;;4993996;28;20034;-72
2024/02/08 12:45:54;;;;;;;25.33;15.43;;;9.10;98.90;;;;;;4981365;28;20170;-72
2024/02/08 12:48:20;;;;;;;29.17;13.93;;;9.20;99.10;;;;;;4999364;28;20037;-71
2024/02/08 12:50:52;;;;;;;28.08;12.10;;;9.40;99.40;;;;;;4993205;28;20083;-70
2024/02/08 12:53:21;;;;;;;31.65;11.52;;;9.70;99.80;;;;;;4996498;28;20383;-71
2024/02/08 12:55:47;;;;;;;29.23;13.23;;;10.00;99.90;;;;;;4995461;28;20040;-70
2024/02/08 12:58:17;;;;;;;29.17;12.98;;;10.30;99.90;;;;;;4998097;28;20108;-71
2024/02/08 13:00:54;;;;;;;29.52;11.70;;;10.60;99.90;;;;;;4997961;28;20034;-70
2024/02/08 13:03:24;;;;;;;25.92;11.13;;;10.70;99.90;;;;;;4998863;28;20565;-70
2024/02/08 13:05:50;;;;;;;27.38;11.73;;;10.70;99.90;;;;;;4994992;28;20149;-71
2024/02/08 13:08:22;;;;;;;28.98;11.38;;;10.90;99.90;;;;;;4998257;28;20029;-72
2024/02/08 13:10:55;;;;;;;27.42;11.57;;;11.00;99.90;;;;;;4996792;28;20021;-72
2024/02/08 13:13:23;;;;;;;23.88;9.80;;;11.10;99.90;;;;;;4996798;28;20039;-72
2024/02/08 13:15:58;;;;;;;25.55;9.65;;;11.10;99.90;;;;;;4998273;28;20045;-73
2024/02/08 13:18:31;;;;;;;18.55;7.93;;;11.20;99.90;;;;;;4996252;28;20048;-72
2024/02/08 13:21:03;;;;;;;15.82;7.13;;;11.20;99.90;;;;;;4993895;28;20382;-72
2024/02/08 13:23:31;;;;;;;16.60;6.30;;;11.30;99.90;;;;;;4997673;28;20384;-72
2024/02/08 13:25:57;;;;;;;20.08;6.95;;;11.30;99.90;;;;;;4991196;28;20026;-70
2024/02/08 13:28:26;;;;;;;20.00;9.00;;;11.40;99.90;;;;;;4997655;28;20038;-70
2024/02/08 13:30:53;;;;;;;18.30;9.32;;;11.40;99.90;;;;;;4995490;28;20030;-72
2024/02/08 13:33:20;;;;;;;18.98;9.57;;;11.50;99.90;;;;;;5001114;28;20037;-72
2024/02/08 13:35:52;;;;;;;21.48;10.05;;;11.50;99.90;;;;;;4988005;28;21225;-71
2024/02/08 13:38:22;;;;;;;18.25;7.50;;;11.60;99.90;;;;;;4996422;28;20053;-71
2024/02/08 13:40:52;;;;;;;15.13;6.28;;;11.60;99.90;;;;;;4997692;28;20041;-71
2024/02/08 13:43:19;;;;;;;18.35;6.10;;;11.70;99.90;;;;;;5005881;28;20029;-71
2024/02/08 13:45:46;;;;;;;17.63;6.05;;;11.70;99.90;;;;;;4985271;28;20030;-70
2024/02/08 13:48:15;;;;;;;15.35;6.18;;;11.80;99.90;;;;;;4996546;28;20076;-70
2024/02/08 13:50:46;;;;;;;15.75;5.70;;;11.80;99.80;;;;;;4997028;28;20047;-70
2024/02/08 13:53:14;;;;;;;16.52;5.95;;;11.90;99.80;;;;;;4999859;28;20358;-71
2024/02/08 13:55:45;;;;;;;14.52;6.68;;;11.90;99.70;;;;;;4997907;28;20065;-71
2024/02/08 13:58:12;;;;;;;16.77;5.82;;;11.90;99.50;;;;;;4995158;28;20030;-71
2024/02/08 14:00:41;;;;;;;14.07;6.45;;;11.90;99.50;;;;;;4996965;28;20042;-71
2024/02/08 14:03:08;;;;;;;14.50;6.80;;;12.00;99.40;;;;;;4997497;28;20521;-71
2024/02/08 14:05:39;;;;;;;19.95;7.82;;;12.00;99.40;;;;;;4997162;28;20030;-72
2024/02/08 14:08:06;;;;;;;14.73;6.40;;;12.00;99.30;;;;;;4996290;28;20026;-70
2024/02/08 14:10:32;;;;;;;14.45;6.85;;;11.90;99.30;;;;;;4996233;28;20039;-71
2024/02/08 14:13:11;;;;;;;14.57;6.78;;;12.00;99.30;;;;;;4997399;28;20499;-71
2024/02/08 14:15:46;;;;;;;14.68;6.95;;;11.90;99.20;;;;;;4996058;28;20367;-72
2024/02/08 14:18:22;;;;;;;18.38;6.95;;;11.90;99.20;;;;;;4994857;28;20057;-73
2024/02/08 14:21:00;;;;;;;13.95;6.10;;;11.90;99.20;;;;;;4992404;28;20314;-72
2024/02/08 14:23:30;;;;;;;15.02;6.63;;;11.90;99.20;;;;;;4992796;28;20395;-71
2024/02/08 14:28:38;;;;;;;18.63;7.22;;;12.00;99.00;;;;;;4998883;28;20219;-71
2024/02/08 14:31:04;;;;;;;17.63;6.50;;;12.00;99.00;;;;;;4991177;28;20402;-71
2024/02/08 14:33:30;;;;;;;18.00;7.82;;;12.10;98.90;;;;;;4997602;28;20119;-69
2024/02/08 14:35:56;;;;;;;21.73;8.63;;;12.10;98.80;;;;;;4980967;28;20169;-71
2024/02/08 14:38:22;;;;;;;16.63;7.38;;;12.10;98.60;;;;;;5009721;28;20354;-70
2024/02/08 14:40:48;;;;;;;18.58;8.30;;;12.10;98.50;;;;;;5007221;28;20045;-71
2024/02/08 14:43:25;;;;;;;17.60;7.07;;;12.10;98.40;;;;;;4992096;28;20080;-71
2024/02/08 14:45:54;;;;;;;22.63;8.38;;;12.10;98.20;;;;;;4989308;28;20053;-73
2024/02/08 14:48:27;;;;;;;17.63;7.75;;;12.10;98.20;;;;;;4997666;28;20052;-72
2024/02/08 14:51:05;;;;;;;18.02;8.15;;;12.10;98.10;;;;;;4982271;28;20029;-71
2024/02/08 14:53:32;;;;;;;19.33;7.88;;;12.10;98.00;;;;;;4995203;28;20034;-72
2024/02/08 14:56:01;;;;;;;16.38;7.43;;;12.20;98.00;;;;;;4997104;28;20032;-70